Карточка аэропорта UNWW

Внимание!
Информация на этой странице в стадии наполнения.
Если вы не увидели какой-то информации, или заметили неточность - пожалуйста сообщите нам!
Спасибо!
Команда RU-STAFF
Название аэропортаСпиченково
Название аэропорта (англ.)Spichenkovo
Превышение1023 ft. (311.8 m.)
Координаты53°48.714', 86°52.704'
Высота перехода800m
Эшелон переходаFL050
Коды ответчика5270-5277
Зона ОрВДНовосибирск РПИ (UNNT)
Данные METARUNWW 290230Z 16007MPS 9999 -SHRA BKN023CB 05/03 Q1012 R19/290150 NOSIG RMK QFE732
Проноз погоды (TAF)UNWW 290200Z 2903/3003 21008G15MPS 8000 -SHRA BKN016CB TX11/2907Z TN01/2923Z TEMPO 2903/2911 24015G20MPS BKN005 BKN016CB PROB40 TEMPO 2903/2911 -TSRA BECMG 2912/2916 24003G08MPS BKN039CB BECMG 2917/2921 18003G08MPS
NOTAMshow/hide NOTAM
AWOS   TABLE

Информация о ВПП

ВПП Длина ВПП (м.) Покрытие Курс ВПП Частота ILS
012679Цементобетон14 
192679Цементобетон194111.1

Диспетчерские позиции

Позывной Наименование органа УВД Частота
UNWW_TWRНовокузнецк-Старт121.2
UNWW_APPНовокузнецк-Подход118.6



Спутниковое изображение